Terminal Aerodrome Forecast
Issued by NWS

Home | Current Version | Previous Version | Text Only | Print | Product List | Glossary On
Versions: 1 2 3 4 5 6 7 8 9 10 11 12 13 14 15 16 17 18 19 20 21 22 23 24 25 26 27 28 29 30 31
000
FTUS41 KBOX 040953 AAA
TAFACK
TAF AMD
KACK 040953Z 0410/0506 23020KT P6SM BKN007 OVC012 WS020/25050KT
     FM041300 25016G24KT P6SM -RA OVC012
     FM041700 25013KT P6SM OVC015
     FM050200 28009KT P6SM OVC008
     FM050400 29008KT 3SM -FZRASNPL BR OVC003
     FM050500 30008KT 3SM -SNPL BR OVC003=

USA.gov is the U.S. government's official web portal to all federal, state and local government web resources and services.